sensor_id;sensor_type;location;lat;lon;timestamp;P1;durP1;ratioP1;P2;durP2;ratioP2
31974;SDS011;18500;43.618;1.474;2023-04-02T00:00:30;676.72;;;626.58;;
31974;SDS011;18500;43.618;1.474;2023-04-02T00:02:58;713.90;;;660.70;;
31974;SDS011;18500;43.618;1.474;2023-04-02T00:08:02;670.47;;;622.20;;
31974;SDS011;18500;43.618;1.474;2023-04-02T00:10:34;681.08;;;629.88;;
31974;SDS011;18500;43.618;1.474;2023-04-02T00:15:39;715.85;;;660.92;;
31974;SDS011;18500;43.618;1.474;2023-04-02T00:18:08;810.78;;;746.45;;
31974;SDS011;18500;43.618;1.474;2023-04-02T00:20:39;819.67;;;755.40;;
31974;SDS011;18500;43.618;1.474;2023-04-02T00:23:10;850.00;;;777.90;;
31974;SDS011;18500;43.618;1.474;2023-04-02T00:25:37;726.10;;;671.20;;
31974;SDS011;18500;43.618;1.474;2023-04-02T00:28:13;727.33;;;672.42;;
31974;SDS011;18500;43.618;1.474;2023-04-02T00:33:24;768.60;;;710.08;;
31974;SDS011;18500;43.618;1.474;2023-04-02T00:35:52;733.55;;;676.08;;
31974;SDS011;18500;43.618;1.474;2023-04-02T00:38:25;626.55;;;581.47;;
31974;SDS011;18500;43.618;1.474;2023-04-02T00:40:55;748.67;;;693.20;;
31974;SDS011;18500;43.618;1.474;2023-04-02T00:43:26;777.88;;;719.40;;
31974;SDS011;18500;43.618;1.474;2023-04-02T00:45:55;691.28;;;638.85;;
31974;SDS011;18500;43.618;1.474;2023-04-02T00:51:30;654.95;;;607.35;;
31974;SDS011;18500;43.618;1.474;2023-04-02T00:54:01;801.45;;;736.58;;
31974;SDS011;18500;43.618;1.474;2023-04-02T00:56:37;647.85;;;599.40;;
31974;SDS011;18500;43.618;1.474;2023-04-02T00:59:20;731.53;;;676.53;;
31974;SDS011;18500;43.618;1.474;2023-04-02T01:01:55;705.70;;;652.80;;
31974;SDS011;18500;43.618;1.474;2023-04-02T01:04:50;701.45;;;648.55;;
31974;SDS011;18500;43.618;1.474;2023-04-02T01:07:17;802.05;;;738.05;;
31974;SDS011;18500;43.618;1.474;2023-04-02T01:09:58;746.35;;;688.97;;
31974;SDS011;18500;43.618;1.474;2023-04-02T01:31:27;670.03;;;620.30;;
31974;SDS011;18500;43.618;1.474;2023-04-02T01:33:57;703.63;;;650.42;;
31974;SDS011;18500;43.618;1.474;2023-04-02T01:36:26;701.38;;;650.30;;
31974;SDS011;18500;43.618;1.474;2023-04-02T01:42:19;725.13;;;670.33;;
31974;SDS011;18500;43.618;1.474;2023-04-02T01:45:04;636.03;;;589.47;;
31974;SDS011;18500;43.618;1.474;2023-04-02T01:47:38;681.85;;;630.35;;
31974;SDS011;18500;43.618;1.474;2023-04-02T01:52:39;667.47;;;617.83;;
31974;SDS011;18500;43.618;1.474;2023-04-02T01:55:07;720.10;;;663.67;;
31974;SDS011;18500;43.618;1.474;2023-04-02T01:57:37;692.92;;;641.17;;
31974;SDS011;18500;43.618;1.474;2023-04-02T02:00:07;836.83;;;769.83;;
31974;SDS011;18500;43.618;1.474;2023-04-02T02:02:37;722.15;;;668.40;;
31974;SDS011;18500;43.618;1.474;2023-04-02T02:05:05;718.05;;;661.85;;
31974;SDS011;18500;43.618;1.474;2023-04-02T02:07:37;628.13;;;580.25;;
31974;SDS011;18500;43.618;1.474;2023-04-02T02:10:03;666.13;;;615.50;;
31974;SDS011;18500;43.618;1.474;2023-04-02T02:12:29;703.08;;;649.38;;
31974;SDS011;18500;43.618;1.474;2023-04-02T02:14:55;747.88;;;691.25;;
31974;SDS011;18500;43.618;1.474;2023-04-02T02:17:26;762.20;;;701.83;;
31974;SDS011;18500;43.618;1.474;2023-04-02T02:19:58;710.60;;;656.65;;
31974;SDS011;18500;43.618;1.474;2023-04-02T02:22:27;687.67;;;636.50;;
31974;SDS011;18500;43.618;1.474;2023-04-02T02:24:59;797.35;;;734.25;;
31974;SDS011;18500;43.618;1.474;2023-04-02T02:30:26;681.45;;;628.78;;
31974;SDS011;18500;43.618;1.474;2023-04-02T02:35:29;770.90;;;709.30;;
31974;SDS011;18500;43.618;1.474;2023-04-02T02:40:59;708.42;;;653.30;;
31974;SDS011;18500;43.618;1.474;2023-04-02T02:43:30;783.20;;;720.30;;
31974;SDS011;18500;43.618;1.474;2023-04-02T02:45:58;743.22;;;686.95;;
31974;SDS011;18500;43.618;1.474;2023-04-02T02:48:31;831.47;;;766.72;;
31974;SDS011;18500;43.618;1.474;2023-04-02T02:51:01;769.35;;;708.45;;
31974;SDS011;18500;43.618;1.474;2023-04-02T02:53:31;817.15;;;752.42;;
31974;SDS011;18500;43.618;1.474;2023-04-02T02:55:57;811.78;;;748.55;;
31974;SDS011;18500;43.618;1.474;2023-04-02T02:58:27;796.60;;;731.67;;
31974;SDS011;18500;43.618;1.474;2023-04-02T03:00:56;885.80;;;815.65;;
31974;SDS011;18500;43.618;1.474;2023-04-02T03:03:23;861.53;;;793.72;;
31974;SDS011;18500;43.618;1.474;2023-04-02T03:05:53;794.13;;;732.88;;
31974;SDS011;18500;43.618;1.474;2023-04-02T03:08:42;816.85;;;752.63;;
31974;SDS011;18500;43.618;1.474;2023-04-02T03:11:56;871.97;;;801.55;;
31974;SDS011;18500;43.618;1.474;2023-04-02T03:14:09;773.20;;;712.90;;
31974;SDS011;18500;43.618;1.474;2023-04-02T03:16:57;751.03;;;694.67;;
31974;SDS011;18500;43.618;1.474;2023-04-02T03:22:10;888.05;;;815.85;;
31974;SDS011;18500;43.618;1.474;2023-04-02T03:27:57;781.08;;;719.25;;
31974;SDS011;18500;43.618;1.474;2023-04-02T03:35:52;774.75;;;714.25;;
31974;SDS011;18500;43.618;1.474;2023-04-02T03:38:26;778.55;;;716.58;;
31974;SDS011;18500;43.618;1.474;2023-04-02T03:43:43;812.75;;;748.97;;
31974;SDS011;18500;43.618;1.474;2023-04-02T03:48:56;825.35;;;757.33;;
31974;SDS011;18500;43.618;1.474;2023-04-02T03:52:02;866.05;;;795.92;;
31974;SDS011;18500;43.618;1.474;2023-04-02T03:54:36;819.88;;;753.63;;
31974;SDS011;18500;43.618;1.474;2023-04-02T03:57:02;856.78;;;788.85;;
31974;SDS011;18500;43.618;1.474;2023-04-02T04:04:57;822.60;;;756.90;;
31974;SDS011;18500;43.618;1.474;2023-04-02T04:07:35;896.42;;;821.00;;
31974;SDS011;18500;43.618;1.474;2023-04-02T04:10:05;873.97;;;801.22;;
31974;SDS011;18500;43.618;1.474;2023-04-02T04:12:33;778.88;;;719.58;;
31974;SDS011;18500;43.618;1.474;2023-04-02T04:17:59;893.17;;;817.80;;
31974;SDS011;18500;43.618;1.474;2023-04-02T04:20:39;833.25;;;766.33;;
31974;SDS011;18500;43.618;1.474;2023-04-02T04:23:25;920.80;;;846.10;;
31974;SDS011;18500;43.618;1.474;2023-04-02T04:25:59;905.63;;;826.72;;
31974;SDS011;18500;43.618;1.474;2023-04-02T04:28:55;944.92;;;866.47;;
31974;SDS011;18500;43.618;1.474;2023-04-02T04:31:42;763.40;;;702.65;;
31974;SDS011;18500;43.618;1.474;2023-04-02T04:34:19;761.53;;;701.67;;
31974;SDS011;18500;43.618;1.474;2023-04-02T04:36:57;785.40;;;723.92;;
31974;SDS011;18500;43.618;1.474;2023-04-02T04:39:31;774.53;;;714.72;;
31974;SDS011;18500;43.618;1.474;2023-04-02T04:42:06;780.92;;;720.05;;
31974;SDS011;18500;43.618;1.474;2023-04-02T04:44:54;878.17;;;804.92;;
31974;SDS011;18500;43.618;1.474;2023-04-02T04:47:29;870.92;;;796.58;;
31974;SDS011;18500;43.618;1.474;2023-04-02T04:50:06;867.83;;;795.28;;
31974;SDS011;18500;43.618;1.474;2023-04-02T04:52:40;831.25;;;761.20;;
31974;SDS011;18500;43.618;1.474;2023-04-02T04:55:23;882.15;;;807.92;;
31974;SDS011;18500;43.618;1.474;2023-04-02T05:09:26;795.35;;;731.05;;
31974;SDS011;18500;43.618;1.474;2023-04-02T05:14:49;822.30;;;753.35;;
31974;SDS011;18500;43.618;1.474;2023-04-02T05:17:22;868.95;;;798.42;;
31974;SDS011;18500;43.618;1.474;2023-04-02T05:19:58;688.72;;;636.38;;
31974;SDS011;18500;43.618;1.474;2023-04-02T05:22:35;758.65;;;699.33;;
31974;SDS011;18500;43.618;1.474;2023-04-02T05:25:21;762.08;;;702.00;;
31974;SDS011;18500;43.618;1.474;2023-04-02T05:28:05;802.67;;;737.25;;
31974;SDS011;18500;43.618;1.474;2023-04-02T05:30:36;763.80;;;703.08;;
31974;SDS011;18500;43.618;1.474;2023-04-02T05:33:04;774.25;;;711.25;;
31974;SDS011;18500;43.618;1.474;2023-04-02T05:35:40;839.22;;;772.45;;
31974;SDS011;18500;43.618;1.474;2023-04-02T05:38:18;750.15;;;688.78;;
31974;SDS011;18500;43.618;1.474;2023-04-02T05:40:47;803.00;;;735.97;;
31974;SDS011;18500;43.618;1.474;2023-04-02T05:43:18;777.50;;;715.22;;
31974;SDS011;18500;43.618;1.474;2023-04-02T05:45:52;776.63;;;713.15;;
31974;SDS011;18500;43.618;1.474;2023-04-02T05:48:23;759.97;;;699.42;;
31974;SDS011;18500;43.618;1.474;2023-04-02T05:50:55;795.13;;;728.05;;
31974;SDS011;18500;43.618;1.474;2023-04-02T05:56:16;760.78;;;698.85;;
31974;SDS011;18500;43.618;1.474;2023-04-02T05:58:46;817.10;;;748.25;;
31974;SDS011;18500;43.618;1.474;2023-04-02T06:01:31;714.97;;;659.22;;
31974;SDS011;18500;43.618;1.474;2023-04-02T06:06:47;702.53;;;648.80;;
31974;SDS011;18500;43.618;1.474;2023-04-02T06:11:58;765.10;;;705.95;;
31974;SDS011;18500;43.618;1.474;2023-04-02T06:14:38;816.17;;;751.15;;
31974;SDS011;18500;43.618;1.474;2023-04-02T06:17:04;748.95;;;689.90;;
31974;SDS011;18500;43.618;1.474;2023-04-02T06:19:31;775.17;;;711.65;;
31974;SDS011;18500;43.618;1.474;2023-04-02T06:22:06;804.40;;;737.60;;
31974;SDS011;18500;43.618;1.474;2023-04-02T06:24:42;791.90;;;724.35;;
31974;SDS011;18500;43.618;1.474;2023-04-02T06:27:11;786.55;;;722.85;;
31974;SDS011;18500;43.618;1.474;2023-04-02T06:29:43;872.03;;;793.28;;
31974;SDS011;18500;43.618;1.474;2023-04-02T06:32:12;844.13;;;771.95;;
31974;SDS011;18500;43.618;1.474;2023-04-02T06:34:38;821.78;;;751.88;;
31974;SDS011;18500;43.618;1.474;2023-04-02T06:39:56;922.72;;;842.22;;
31974;SDS011;18500;43.618;1.474;2023-04-02T06:42:24;904.88;;;826.95;;
31974;SDS011;18500;43.618;1.474;2023-04-02T06:44:53;858.55;;;786.38;;
31974;SDS011;18500;43.618;1.474;2023-04-02T06:47:53;931.80;;;849.65;;
31974;SDS011;18500;43.618;1.474;2023-04-02T06:50:36;880.25;;;802.35;;
31974;SDS011;18500;43.618;1.474;2023-04-02T06:53:24;787.58;;;724.15;;
31974;SDS011;18500;43.618;1.474;2023-04-02T06:58:55;697.20;;;642.28;;
31974;SDS011;18500;43.618;1.474;2023-04-02T07:01:23;725.00;;;665.97;;
31974;SDS011;18500;43.618;1.474;2023-04-02T07:03:52;647.95;;;599.47;;
31974;SDS011;18500;43.618;1.474;2023-04-02T07:06:20;706.10;;;648.38;;
31974;SDS011;18500;43.618;1.474;2023-04-02T07:08:46;686.65;;;632.38;;
31974;SDS011;18500;43.618;1.474;2023-04-02T07:11:13;716.95;;;658.17;;
31974;SDS011;18500;43.618;1.474;2023-04-02T07:13:44;888.63;;;810.80;;
31974;SDS011;18500;43.618;1.474;2023-04-02T07:16:12;771.65;;;709.55;;
31974;SDS011;18500;43.618;1.474;2023-04-02T07:18:40;814.70;;;746.90;;
31974;SDS011;18500;43.618;1.474;2023-04-02T07:21:06;735.40;;;676.90;;
31974;SDS011;18500;43.618;1.474;2023-04-02T07:23:32;926.72;;;844.55;;
31974;SDS011;18500;43.618;1.474;2023-04-02T07:25:58;888.47;;;810.20;;
31974;SDS011;18500;43.618;1.474;2023-04-02T07:28:24;929.22;;;847.50;;
31974;SDS011;18500;43.618;1.474;2023-04-02T07:30:50;944.00;;;860.83;;
31974;SDS011;18500;43.618;1.474;2023-04-02T07:33:18;836.10;;;765.50;;
31974;SDS011;18500;43.618;1.474;2023-04-02T07:35:45;896.90;;;812.33;;
31974;SDS011;18500;43.618;1.474;2023-04-02T07:38:12;883.92;;;806.60;;
31974;SDS011;18500;43.618;1.474;2023-04-02T07:40:38;864.70;;;792.53;;
31974;SDS011;18500;43.618;1.474;2023-04-02T07:43:04;919.78;;;831.28;;
31974;SDS011;18500;43.618;1.474;2023-04-02T07:45:30;865.70;;;787.97;;
31974;SDS011;18500;43.618;1.474;2023-04-02T07:47:56;847.83;;;775.85;;
31974;SDS011;18500;43.618;1.474;2023-04-02T07:50:22;978.20;;;884.60;;
31974;SDS011;18500;43.618;1.474;2023-04-02T07:52:48;844.33;;;772.13;;
31974;SDS011;18500;43.618;1.474;2023-04-02T07:55:14;1005.67;;;910.33;;
31974;SDS011;18500;43.618;1.474;2023-04-02T07:57:45;918.08;;;832.10;;
31974;SDS011;18500;43.618;1.474;2023-04-02T08:00:14;918.75;;;835.28;;
31974;SDS011;18500;43.618;1.474;2023-04-02T08:02:40;853.60;;;773.78;;
31974;SDS011;18500;43.618;1.474;2023-04-02T08:05:07;933.65;;;848.30;;
31974;SDS011;18500;43.618;1.474;2023-04-02T08:07:33;868.30;;;788.42;;
31974;SDS011;18500;43.618;1.474;2023-04-02T08:09:59;908.58;;;825.33;;
31974;SDS011;18500;43.618;1.474;2023-04-02T08:12:25;1010.70;;;911.75;;
31974;SDS011;18500;43.618;1.474;2023-04-02T08:14:51;1069.43;;;961.67;;
31974;SDS011;18500;43.618;1.474;2023-04-02T08:17:16;961.30;;;874.17;;
31974;SDS011;18500;43.618;1.474;2023-04-02T08:19:42;1011.85;;;913.80;;
31974;SDS011;18500;43.618;1.474;2023-04-02T08:22:08;943.72;;;857.13;;
31974;SDS011;18500;43.618;1.474;2023-04-02T08:24:34;955.25;;;866.92;;
31974;SDS011;18500;43.618;1.474;2023-04-02T08:27:00;935.40;;;850.88;;
31974;SDS011;18500;43.618;1.474;2023-04-02T08:29:26;985.38;;;891.10;;
31974;SDS011;18500;43.618;1.474;2023-04-02T08:31:56;1002.25;;;908.33;;
31974;SDS011;18500;43.618;1.474;2023-04-02T08:34:22;1041.32;;;941.17;;
31974;SDS011;18500;43.618;1.474;2023-04-02T08:36:48;888.33;;;812.53;;
31974;SDS011;18500;43.618;1.474;2023-04-02T08:39:14;956.33;;;870.15;;
31974;SDS011;18500;43.618;1.474;2023-04-02T08:41:44;813.45;;;744.92;;
31974;SDS011;18500;43.618;1.474;2023-04-02T08:46:53;712.30;;;654.58;;
31974;SDS011;18500;43.618;1.474;2023-04-02T08:52:04;967.03;;;875.22;;
31974;SDS011;18500;43.618;1.474;2023-04-02T08:54:30;725.72;;;667.83;;
31974;SDS011;18500;43.618;1.474;2023-04-02T08:59:45;986.00;;;898.10;;
31974;SDS011;18500;43.618;1.474;2023-04-02T09:04:49;951.55;;;868.05;;
31974;SDS011;18500;43.618;1.474;2023-04-02T09:07:15;1055.57;;;956.55;;
31974;SDS011;18500;43.618;1.474;2023-04-02T09:09:42;1132.53;;;999.90;;
31974;SDS011;18500;43.618;1.474;2023-04-02T09:12:23;1122.57;;;999.90;;
31974;SDS011;18500;43.618;1.474;2023-04-02T09:15:37;784.00;;;722.05;;
31974;SDS011;18500;43.618;1.474;2023-04-02T09:17:37;1024.63;;;930.08;;
31974;SDS011;18500;43.618;1.474;2023-04-02T09:20:14;1099.07;;;996.00;;
31974;SDS011;18500;43.618;1.474;2023-04-02T09:22:48;956.60;;;862.60;;
31974;SDS011;18500;43.618;1.474;2023-04-02T09:25:25;1096.28;;;985.67;;
31974;SDS011;18500;43.618;1.474;2023-04-02T09:27:55;1004.03;;;910.38;;
31974;SDS011;18500;43.618;1.474;2023-04-02T09:30:26;1095.85;;;991.33;;
31974;SDS011;18500;43.618;1.474;2023-04-02T09:32:56;1026.10;;;933.85;;
31974;SDS011;18500;43.618;1.474;2023-04-02T09:35:29;1016.53;;;925.00;;
31974;SDS011;18500;43.618;1.474;2023-04-02T09:43:22;908.10;;;825.63;;
31974;SDS011;18500;43.618;1.474;2023-04-02T09:45:57;859.88;;;784.50;;
31974;SDS011;18500;43.618;1.474;2023-04-02T09:48:49;898.97;;;817.30;;
31974;SDS011;18500;43.618;1.474;2023-04-02T09:51:19;1117.13;;;994.70;;
31974;SDS011;18500;43.618;1.474;2023-04-02T09:56:32;1097.35;;;993.03;;
31974;SDS011;18500;43.618;1.474;2023-04-02T09:59:20;1094.78;;;988.13;;
31974;SDS011;18500;43.618;1.474;2023-04-02T10:07:09;1053.15;;;954.78;;
31974;SDS011;18500;43.618;1.474;2023-04-02T10:10:20;983.95;;;896.40;;
31974;SDS011;18500;43.618;1.474;2023-04-02T10:15:41;1030.25;;;929.47;;
31974;SDS011;18500;43.618;1.474;2023-04-02T10:18:20;1009.72;;;918.92;;
31974;SDS011;18500;43.618;1.474;2023-04-02T10:21:05;889.70;;;805.55;;
31974;SDS011;18500;43.618;1.474;2023-04-02T10:23:34;1110.60;;;993.25;;
31974;SDS011;18500;43.618;1.474;2023-04-02T10:34:42;1138.65;;;999.90;;
31974;SDS011;18500;43.618;1.474;2023-04-02T10:40:00;1044.85;;;941.78;;
31974;SDS011;18500;43.618;1.474;2023-04-02T10:42:42;1112.45;;;993.40;;
31974;SDS011;18500;43.618;1.474;2023-04-02T10:48:08;1052.63;;;947.72;;
31974;SDS011;18500;43.618;1.474;2023-04-02T10:53:40;1083.15;;;977.80;;
31974;SDS011;18500;43.618;1.474;2023-04-02T10:56:11;1270.30;;;999.90;;
31974;SDS011;18500;43.618;1.474;2023-04-02T10:58:38;1227.93;;;999.90;;
31974;SDS011;18500;43.618;1.474;2023-04-02T11:01:14;1639.25;;;999.90;;
31974;SDS011;18500;43.618;1.474;2023-04-02T11:06:19;944.13;;;850.50;;
31974;SDS011;18500;43.618;1.474;2023-04-02T11:08:51;1056.38;;;948.85;;
31974;SDS011;18500;43.618;1.474;2023-04-02T11:11:25;1073.88;;;968.85;;
31974;SDS011;18500;43.618;1.474;2023-04-02T11:13:57;1079.15;;;972.08;;
31974;SDS011;18500;43.618;1.474;2023-04-02T11:16:38;960.90;;;879.85;;
31974;SDS011;18500;43.618;1.474;2023-04-02T11:21:56;1007.92;;;914.22;;
31974;SDS011;18500;43.618;1.474;2023-04-02T11:24:30;1044.28;;;944.95;;
31974;SDS011;18500;43.618;1.474;2023-04-02T11:42:46;1053.00;;;951.50;;
31974;SDS011;18500;43.618;1.474;2023-04-02T11:50:29;1218.60;;;999.90;;
31974;SDS011;18500;43.618;1.474;2023-04-02T11:55:35;1064.50;;;963.10;;
31974;SDS011;18500;43.618;1.474;2023-04-02T11:58:19;1074.03;;;969.63;;
31974;SDS011;18500;43.618;1.474;2023-04-02T12:01:13;1061.63;;;956.70;;
31974;SDS011;18500;43.618;1.474;2023-04-02T12:06:18;1121.10;;;997.92;;
31974;SDS011;18500;43.618;1.474;2023-04-02T12:11:43;1034.60;;;915.08;;
31974;SDS011;18500;43.618;1.474;2023-04-02T12:16:55;758.83;;;694.33;;
31974;SDS011;18500;43.618;1.474;2023-04-02T12:19:22;917.00;;;839.17;;
31974;SDS011;18500;43.618;1.474;2023-04-02T12:21:50;1125.82;;;994.25;;
31974;SDS011;18500;43.618;1.474;2023-04-02T12:24:20;1130.70;;;999.90;;
31974;SDS011;18500;43.618;1.474;2023-04-02T12:26:48;854.42;;;770.78;;
31974;SDS011;18500;43.618;1.474;2023-04-02T12:29:32;1010.45;;;908.15;;
31974;SDS011;18500;43.618;1.474;2023-04-02T12:31:58;776.83;;;717.63;;
31974;SDS011;18500;43.618;1.474;2023-04-02T12:34:26;826.97;;;759.10;;
31974;SDS011;18500;43.618;1.474;2023-04-02T12:39:24;839.95;;;770.92;;
31974;SDS011;18500;43.618;1.474;2023-04-02T12:41:50;826.95;;;761.40;;
31974;SDS011;18500;43.618;1.474;2023-04-02T12:44:17;398.08;;;371.90;;
31974;SDS011;18500;43.618;1.474;2023-04-02T12:46:45;520.17;;;486.83;;
31974;SDS011;18500;43.618;1.474;2023-04-02T12:52:10;652.60;;;607.83;;
31974;SDS011;18500;43.618;1.474;2023-04-02T12:54:48;803.78;;;744.42;;
31974;SDS011;18500;43.618;1.474;2023-04-02T12:59:53;697.08;;;647.13;;
31974;SDS011;18500;43.618;1.474;2023-04-02T13:02:23;854.63;;;787.22;;
31974;SDS011;18500;43.618;1.474;2023-04-02T13:04:52;777.75;;;718.03;;
31974;SDS011;18500;43.618;1.474;2023-04-02T13:07:25;853.17;;;778.83;;
31974;SDS011;18500;43.618;1.474;2023-04-02T13:10:03;620.40;;;575.90;;
31974;SDS011;18500;43.618;1.474;2023-04-02T13:12:47;1170.18;;;999.90;;
31974;SDS011;18500;43.618;1.474;2023-04-02T13:15:19;1191.80;;;999.90;;
31974;SDS011;18500;43.618;1.474;2023-04-02T13:18:03;1162.05;;;999.90;;
31974;SDS011;18500;43.618;1.474;2023-04-02T13:20:30;1142.03;;;999.90;;
31974;SDS011;18500;43.618;1.474;2023-04-02T13:23:00;1104.80;;;984.55;;
31974;SDS011;18500;43.618;1.474;2023-04-02T13:25:45;1245.97;;;999.90;;
31974;SDS011;18500;43.618;1.474;2023-04-02T13:28:10;1035.53;;;935.80;;
31974;SDS011;18500;43.618;1.474;2023-04-02T13:30:36;989.67;;;903.78;;
31974;SDS011;18500;43.618;1.474;2023-04-02T13:33:02;1009.13;;;909.63;;
31974;SDS011;18500;43.618;1.474;2023-04-02T13:35:27;1126.65;;;999.90;;
31974;SDS011;18500;43.618;1.474;2023-04-02T13:37:53;1202.78;;;999.90;;
31974;SDS011;18500;43.618;1.474;2023-04-02T13:40:19;1582.80;;;999.90;;
31974;SDS011;18500;43.618;1.474;2023-04-02T13:42:45;1888.55;;;999.90;;
31974;SDS011;18500;43.618;1.474;2023-04-02T13:45:32;1999.90;;;999.90;;
31974;SDS011;18500;43.618;1.474;2023-04-02T13:48:00;1999.90;;;999.90;;
31974;SDS011;18500;43.618;1.474;2023-04-02T13:50:27;1999.90;;;999.90;;
31974;SDS011;18500;43.618;1.474;2023-04-02T13:52:55;1575.35;;;999.90;;
31974;SDS011;18500;43.618;1.474;2023-04-02T13:55:24;1280.18;;;999.90;;
31974;SDS011;18500;43.618;1.474;2023-04-02T13:57:53;1417.65;;;999.90;;
31974;SDS011;18500;43.618;1.474;2023-04-02T14:00:20;1165.30;;;999.60;;
31974;SDS011;18500;43.618;1.474;2023-04-02T14:02:47;910.60;;;831.95;;
31974;SDS011;18500;43.618;1.474;2023-04-02T14:05:59;736.60;;;672.00;;
31974;SDS011;18500;43.618;1.474;2023-04-02T14:44:17;1027.15;;;923.33;;
31974;SDS011;18500;43.618;1.474;2023-04-02T14:46:47;850.60;;;781.00;;
31974;SDS011;18500;43.618;1.474;2023-04-02T14:49:22;677.35;;;626.67;;
31974;SDS011;18500;43.618;1.474;2023-04-02T14:51:52;1057.35;;;946.75;;
31974;SDS011;18500;43.618;1.474;2023-04-02T14:54:34;1168.35;;;999.90;;
31974;SDS011;18500;43.618;1.474;2023-04-02T15:02:42;1611.18;;;999.90;;
31974;SDS011;18500;43.618;1.474;2023-04-02T15:05:34;1368.40;;;999.90;;
31974;SDS011;18500;43.618;1.474;2023-04-02T15:13:36;1125.97;;;999.90;;
31974;SDS011;18500;43.618;1.474;2023-04-02T15:16:13;1339.20;;;999.90;;
31974;SDS011;18500;43.618;1.474;2023-04-02T15:18:43;1267.47;;;999.90;;
31974;SDS011;18500;43.618;1.474;2023-04-02T15:23:50;1144.03;;;999.90;;
31974;SDS011;18500;43.618;1.474;2023-04-02T15:28:49;1352.88;;;999.90;;
31974;SDS011;18500;43.618;1.474;2023-04-02T15:31:35;732.78;;;675.97;;
31974;SDS011;18500;43.618;1.474;2023-04-02T15:41:55;803.92;;;742.83;;
31974;SDS011;18500;43.618;1.474;2023-04-02T15:44:47;618.15;;;576.00;;
31974;SDS011;18500;43.618;1.474;2023-04-02T15:49:58;632.78;;;584.83;;
31974;SDS011;18500;43.618;1.474;2023-04-02T15:52:53;781.35;;;717.90;;
31974;SDS011;18500;43.618;1.474;2023-04-02T15:55:44;725.00;;;669.38;;
31974;SDS011;18500;43.618;1.474;2023-04-02T16:01:00;632.90;;;590.33;;
31974;SDS011;18500;43.618;1.474;2023-04-02T16:06:27;496.60;;;462.88;;
31974;SDS011;18500;43.618;1.474;2023-04-02T16:11:41;739.17;;;684.78;;
31974;SDS011;18500;43.618;1.474;2023-04-02T16:16:38;853.67;;;785.05;;
31974;SDS011;18500;43.618;1.474;2023-04-02T16:21:32;617.85;;;572.90;;
31974;SDS011;18500;43.618;1.474;2023-04-02T16:24:04;916.25;;;839.55;;
31974;SDS011;18500;43.618;1.474;2023-04-02T16:26:55;922.58;;;844.60;;
31974;SDS011;18500;43.618;1.474;2023-04-02T16:29:58;896.75;;;820.92;;
31974;SDS011;18500;43.618;1.474;2023-04-02T16:32:37;789.65;;;731.72;;
31974;SDS011;18500;43.618;1.474;2023-04-02T16:37:51;834.53;;;770.35;;
31974;SDS011;18500;43.618;1.474;2023-04-02T16:55:09;999.83;;;909.00;;
31974;SDS011;18500;43.618;1.474;2023-04-02T17:00:41;1038.25;;;942.08;;
31974;SDS011;18500;43.618;1.474;2023-04-02T17:08:42;924.20;;;849.27;;
31974;SDS011;18500;43.618;1.474;2023-04-02T17:11:13;874.67;;;804.80;;
31974;SDS011;18500;43.618;1.474;2023-04-02T17:13:56;936.10;;;855.88;;
31974;SDS011;18500;43.618;1.474;2023-04-02T17:19:11;873.28;;;800.65;;
31974;SDS011;18500;43.618;1.474;2023-04-02T17:21:40;799.80;;;736.00;;
31974;SDS011;18500;43.618;1.474;2023-04-02T17:24:22;810.20;;;751.05;;
31974;SDS011;18500;43.618;1.474;2023-04-02T17:29:36;810.97;;;748.80;;
31974;SDS011;18500;43.618;1.474;2023-04-02T17:32:13;777.70;;;718.33;;
31974;SDS011;18500;43.618;1.474;2023-04-02T17:34:44;759.88;;;701.90;;
31974;SDS011;18500;43.618;1.474;2023-04-02T17:37:14;729.20;;;676.25;;
31974;SDS011;18500;43.618;1.474;2023-04-02T17:42:33;624.90;;;578.85;;
31974;SDS011;18500;43.618;1.474;2023-04-02T17:45:21;648.28;;;598.60;;
31974;SDS011;18500;43.618;1.474;2023-04-02T17:50:43;602.03;;;560.10;;
31974;SDS011;18500;43.618;1.474;2023-04-02T17:56:42;577.00;;;537.00;;
31974;SDS011;18500;43.618;1.474;2023-04-02T18:15:34;544.17;;;508.98;;
31974;SDS011;18500;43.618;1.474;2023-04-02T18:23:52;444.35;;;416.13;;
31974;SDS011;18500;43.618;1.474;2023-04-02T18:29:47;743.25;;;690.67;;
31974;SDS011;18500;43.618;1.474;2023-04-02T18:35:06;548.33;;;510.48;;
31974;SDS011;18500;43.618;1.474;2023-04-02T18:43:27;579.30;;;538.70;;
31974;SDS011;18500;43.618;1.474;2023-04-02T18:46:16;603.83;;;562.80;;
31974;SDS011;18500;43.618;1.474;2023-04-02T18:48:57;570.95;;;533.00;;
31974;SDS011;18500;43.618;1.474;2023-04-02T18:51:31;655.90;;;610.95;;
31974;SDS011;18500;43.618;1.474;2023-04-02T18:54:19;611.85;;;570.05;;
31974;SDS011;18500;43.618;1.474;2023-04-02T18:57:16;574.30;;;535.80;;
31974;SDS011;18500;43.618;1.474;2023-04-02T18:59:59;674.67;;;627.72;;
31974;SDS011;18500;43.618;1.474;2023-04-02T19:05:04;764.90;;;708.85;;
31974;SDS011;18500;43.618;1.474;2023-04-02T19:07:37;577.00;;;537.15;;
31974;SDS011;18500;43.618;1.474;2023-04-02T19:10:26;792.35;;;733.47;;
31974;SDS011;18500;43.618;1.474;2023-04-02T19:12:55;616.25;;;574.85;;
31974;SDS011;18500;43.618;1.474;2023-04-02T19:15:21;700.22;;;650.95;;
31974;SDS011;18500;43.618;1.474;2023-04-02T19:18:03;672.25;;;626.17;;
31974;SDS011;18500;43.618;1.474;2023-04-02T19:20:49;521.85;;;486.70;;
31974;SDS011;18500;43.618;1.474;2023-04-02T19:26:00;559.90;;;521.42;;
31974;SDS011;18500;43.618;1.474;2023-04-02T19:44:58;599.00;;;559.13;;
31974;SDS011;18500;43.618;1.474;2023-04-02T19:47:25;505.10;;;472.13;;
31974;SDS011;18500;43.618;1.474;2023-04-02T19:49:51;485.20;;;454.30;;
31974;SDS011;18500;43.618;1.474;2023-04-02T19:52:17;733.55;;;681.55;;
31974;SDS011;18500;43.618;1.474;2023-04-02T19:54:43;679.60;;;632.60;;
31974;SDS011;18500;43.618;1.474;2023-04-02T19:57:18;528.17;;;491.00;;
31974;SDS011;18500;43.618;1.474;2023-04-02T19:59:43;407.90;;;380.95;;
31974;SDS011;18500;43.618;1.474;2023-04-02T20:02:09;394.77;;;369.25;;
31974;SDS011;18500;43.618;1.474;2023-04-02T20:04:35;455.52;;;424.73;;
31974;SDS011;18500;43.618;1.474;2023-04-02T20:07:01;655.30;;;610.28;;
31974;SDS011;18500;43.618;1.474;2023-04-02T20:09:27;526.33;;;492.67;;
31974;SDS011;18500;43.618;1.474;2023-04-02T20:11:53;585.78;;;546.10;;
31974;SDS011;18500;43.618;1.474;2023-04-02T20:14:19;590.97;;;549.75;;
31974;SDS011;18500;43.618;1.474;2023-04-02T20:16:45;554.60;;;516.80;;
31974;SDS011;18500;43.618;1.474;2023-04-02T20:19:11;399.70;;;373.05;;
31974;SDS011;18500;43.618;1.474;2023-04-02T20:21:36;591.97;;;551.03;;
31974;SDS011;18500;43.618;1.474;2023-04-02T20:24:05;623.13;;;580.05;;